createdAt,value
2023-03-26T00:01:54.323Z,99558.41
2023-03-26T00:04:22.201Z,99553.48
2023-03-26T00:06:50.372Z,99552.90
2023-03-26T00:09:18.958Z,99546.80
2023-03-26T00:11:46.868Z,99544.90
2023-03-26T00:14:17.505Z,99544.84
2023-03-26T00:16:47.725Z,99545.68
2023-03-26T00:19:15.788Z,99542.90
2023-03-26T00:21:43.711Z,99541.16
2023-03-26T00:24:17.571Z,99542.17
2023-03-26T00:26:48.528Z,99540.11
2023-03-26T00:29:16.984Z,99537.55
2023-03-26T00:31:46.666Z,99538.94
2023-03-26T00:34:18.707Z,99536.40
2023-03-26T00:36:47.374Z,99530.21
2023-03-26T00:39:17.916Z,99529.36
2023-03-26T00:41:45.765Z,99525.52
2023-03-26T00:44:13.723Z,99522.65
2023-03-26T00:46:42.085Z,99524.48
2023-03-26T00:49:11.111Z,99525.88
2023-03-26T00:51:39.490Z,99521.95
2023-03-26T00:54:09.770Z,99520.11
2023-03-26T00:56:38.914Z,99520.65
2023-03-26T00:59:06.809Z,99514.45
2023-03-26T01:01:34.560Z,99511.70
2023-03-26T01:04:32.361Z,99509.64
2023-03-26T01:07:21.925Z,99503.02
2023-03-26T01:09:51.526Z,99499.43
2023-03-26T01:12:22.537Z,99497.64
2023-03-26T01:14:52.113Z,99495.69
2023-03-26T01:17:19.939Z,99501.02
2023-03-26T01:20:05.800Z,99493.33
2023-03-26T01:22:36.847Z,99495.59
2023-03-26T01:25:05.505Z,99493.16
2023-03-26T01:27:41.222Z,99494.02
2023-03-26T01:30:24.696Z,99498.82
2023-03-26T01:33:21.781Z,99494.26
2023-03-26T01:36:17.816Z,99494.05
2023-03-26T01:39:21.047Z,99494.80
2023-03-26T01:41:58.371Z,99497.93
2023-03-26T01:44:48.165Z,99495.34
2023-03-26T01:47:17.730Z,99494.52
2023-03-26T01:49:45.504Z,99496.10
2023-03-26T01:52:17.415Z,99492.77
2023-03-26T01:54:46.691Z,99481.63
2023-03-26T01:57:33.832Z,99488.84
2023-03-26T02:00:28.467Z,99488.19
2023-03-26T02:03:18.079Z,99488.57
2023-03-26T02:06:05.101Z,99481.86
2023-03-26T02:08:41.353Z,99479.89
2023-03-26T02:11:19.974Z,99483.45
2023-03-26T02:13:47.985Z,99480.69
2023-03-26T02:16:17.474Z,99476.81
2023-03-26T02:18:47.506Z,99477.20
2023-03-26T02:21:22.159Z,99476.42
2023-03-26T02:23:58.077Z,99477.19
2023-03-26T02:26:26.104Z,99476.34
2023-03-26T02:29:19.356Z,99475.52
2023-03-26T02:31:48.642Z,99472.46
2023-03-26T02:34:17.421Z,99474.58
2023-03-26T02:36:51.396Z,99469.99
2023-03-26T02:39:19.701Z,99469.08
2023-03-26T02:41:53.638Z,99469.55
2023-03-26T02:44:21.681Z,99466.05
2023-03-26T02:47:09.865Z,99470.89
2023-03-26T02:49:40.260Z,99466.67
2023-03-26T02:52:08.436Z,99460.90
2023-03-26T02:54:37.175Z,99464.60
2023-03-26T02:57:23.622Z,99460.50
2023-03-26T03:00:14.422Z,99456.98
2023-03-26T03:03:09.605Z,99452.23
2023-03-26T03:05:57.420Z,99450.36
2023-03-26T03:08:30.970Z,99455.27
2023-03-26T03:11:17.143Z,99455.08
2023-03-26T03:13:48.328Z,99452.13
2023-03-26T03:16:31.170Z,99452.48
2023-03-26T03:19:03.161Z,99452.23
2023-03-26T03:21:36.739Z,99446.95
2023-03-26T03:24:05.647Z,99445.28
2023-03-26T03:26:41.331Z,99449.04
2023-03-26T03:29:17.443Z,99445.06
2023-03-26T03:31:45.441Z,99446.45
2023-03-26T03:34:25.570Z,99447.34
2023-03-26T03:36:53.466Z,99446.29
2023-03-26T03:39:36.143Z,99448.39
2023-03-26T03:42:04.241Z,99443.20
2023-03-26T03:44:32.292Z,99443.88
2023-03-26T03:47:00.497Z,99441.92
2023-03-26T03:49:28.255Z,99442.61
2023-03-26T03:51:57.257Z,99446.08
2023-03-26T03:54:33.293Z,99443.55
2023-03-26T03:57:16.073Z,99441.09
2023-03-26T04:00:06.969Z,99444.26
2023-03-26T04:02:43.368Z,99441.42
2023-03-26T04:05:12.655Z,99439.69
2023-03-26T04:07:45.533Z,99444.27
2023-03-26T04:10:43.937Z,99434.45
2023-03-26T04:13:18.083Z,99440.35
2023-03-26T04:16:03.658Z,99438.73
2023-03-26T04:18:32.498Z,99441.29
2023-03-26T04:21:07.410Z,99438.92
2023-03-26T04:23:35.734Z,99434.14
2023-03-26T04:26:18.690Z,99438.20
2023-03-26T04:29:06.962Z,99436.37
2023-03-26T04:31:38.443Z,99432.71
2023-03-26T04:34:24.270Z,99433.33
2023-03-26T04:37:03.532Z,99426.69
2023-03-26T04:39:36.357Z,99422.48
2023-03-26T04:42:23.151Z,99424.92
2023-03-26T04:45:07.874Z,99421.93
2023-03-26T04:47:37.231Z,99423.79
2023-03-26T04:50:07.508Z,99423.39
2023-03-26T04:52:37.241Z,99419.61
2023-03-26T04:55:49.026Z,99424.27
2023-03-26T04:58:33.037Z,99425.17
2023-03-26T05:01:10.400Z,99424.20
2023-03-26T05:03:40.889Z,99422.98
2023-03-26T05:06:13.102Z,99418.71
2023-03-26T05:08:41.962Z,99423.11
2023-03-26T05:11:11.729Z,99425.50
2023-03-26T05:13:42.932Z,99430.05
2023-03-26T05:16:12.877Z,99434.84
2023-03-26T05:18:55.395Z,99427.82
2023-03-26T05:21:23.648Z,99432.19
2023-03-26T05:23:51.614Z,99430.48
2023-03-26T05:26:20.679Z,99431.53
2023-03-26T05:28:48.630Z,99428.28
2023-03-26T05:31:32.761Z,99423.47
2023-03-26T05:34:01.065Z,99426.58
2023-03-26T05:36:29.324Z,99429.88
2023-03-26T05:39:08.834Z,99425.91
2023-03-26T05:41:55.949Z,99425.02
2023-03-26T05:44:28.769Z,99419.20
2023-03-26T05:46:56.794Z,99423.46
2023-03-26T05:49:26.635Z,99426.16
2023-03-26T05:51:55.591Z,99428.35
2023-03-26T05:54:55.741Z,99430.64
2023-03-26T05:57:56.177Z,99431.75
2023-03-26T06:00:43.060Z,99430.85
2023-03-26T06:03:13.127Z,99432.82
2023-03-26T06:06:15.607Z,99434.35
2023-03-26T06:09:02.180Z,99434.59
2023-03-26T06:11:32.346Z,99433.27
2023-03-26T06:14:01.278Z,99431.55
2023-03-26T06:16:29.277Z,99436.66
2023-03-26T06:19:07.395Z,99432.66
2023-03-26T06:21:55.366Z,99432.99
2023-03-26T06:24:27.236Z,99439.83
2023-03-26T06:27:20.726Z,99441.63
2023-03-26T06:29:58.614Z,99440.17
2023-03-26T06:33:01.734Z,99447.00
2023-03-26T06:35:34.224Z,99449.35
2023-03-26T06:38:02.231Z,99456.94
2023-03-26T06:40:31.142Z,99456.59
2023-03-26T06:43:17.661Z,99461.84
2023-03-26T06:45:57.180Z,99458.88
2023-03-26T06:48:44.822Z,99461.03
2023-03-26T06:51:31.411Z,99467.92
2023-03-26T06:54:18.156Z,99465.69
2023-03-26T06:56:53.190Z,99463.35
2023-03-26T06:59:39.993Z,99472.06
2023-03-26T07:02:26.709Z,99481.95
2023-03-26T07:05:14.811Z,99479.30
2023-03-26T07:08:01.298Z,99483.30
2023-03-26T07:10:44.204Z,99481.84
2023-03-26T07:13:34.046Z,99480.05
2023-03-26T07:16:22.726Z,99482.36
2023-03-26T07:19:09.842Z,99482.70
2023-03-26T07:21:40.678Z,99483.27
2023-03-26T07:24:24.153Z,99487.59
2023-03-26T07:27:16.549Z,99484.15
2023-03-26T07:30:20.160Z,99486.41
2023-03-26T07:33:09.411Z,99486.50
2023-03-26T07:36:10.242Z,99489.83
2023-03-26T07:39:03.843Z,99489.25
2023-03-26T07:42:14.420Z,99489.64
2023-03-26T07:45:32.865Z,99487.14
2023-03-26T07:48:27.589Z,99480.84
2023-03-26T07:51:18.805Z,99482.55
2023-03-26T07:54:10.027Z,99483.42
2023-03-26T07:56:59.008Z,99484.20
2023-03-26T08:00:00.209Z,99485.10
2023-03-26T08:03:17.132Z,99477.52
2023-03-26T08:06:38.991Z,99497.14
2023-03-26T08:09:39.788Z,99503.55
2023-03-26T08:12:53.905Z,99496.67
2023-03-26T08:15:32.807Z,99496.52
2023-03-26T08:18:12.816Z,99500.05
2023-03-26T08:20:54.427Z,99496.47
2023-03-26T08:23:50.999Z,99497.89
2023-03-26T08:26:44.554Z,99504.20
2023-03-26T08:29:45.222Z,99506.30
2023-03-26T08:32:16.639Z,99506.73
2023-03-26T08:34:45.171Z,99507.58
2023-03-26T08:37:13.566Z,99506.36
2023-03-26T08:39:42.440Z,99507.92
2023-03-26T08:42:19.313Z,99508.69
2023-03-26T08:45:11.789Z,99509.31
2023-03-26T08:47:45.369Z,99506.45
2023-03-26T08:50:34.674Z,99510.83
2023-03-26T08:53:28.246Z,99520.64
2023-03-26T08:56:19.536Z,99530.33
2023-03-26T08:59:11.299Z,99523.67
2023-03-26T09:02:01.307Z,99523.86
2023-03-26T09:04:35.285Z,99519.38
2023-03-26T09:07:35.390Z,99521.27
2023-03-26T09:10:05.849Z,99520.05
2023-03-26T09:12:49.708Z,99519.38
2023-03-26T09:15:34.779Z,99525.36
2023-03-26T09:18:34.108Z,99524.29
2023-03-26T09:21:28.238Z,99532.39
2023-03-26T09:24:34.672Z,99533.76
2023-03-26T09:27:27.955Z,99529.53
2023-03-26T09:30:14.089Z,99529.23
2023-03-26T09:33:01.855Z,99531.45
2023-03-26T09:35:38.840Z,99524.27
2023-03-26T09:38:36.867Z,99523.45
2023-03-26T09:41:13.684Z,99519.46
2023-03-26T09:43:44.041Z,99522.21
2023-03-26T09:46:20.926Z,99527.98
2023-03-26T09:49:30.978Z,99525.45
2023-03-26T09:52:52.626Z,99531.07
2023-03-26T09:55:49.789Z,99534.27
2023-03-26T09:58:42.180Z,99537.60
2023-03-26T10:01:33.928Z,99539.86
2023-03-26T10:04:20.834Z,99539.52
2023-03-26T10:07:01.355Z,99542.16
2023-03-26T10:09:56.801Z,99544.75
2023-03-26T10:12:33.608Z,99550.01
2023-03-26T10:15:38.908Z,99541.86
2023-03-26T10:18:32.067Z,99540.09
2023-03-26T10:21:02.644Z,99537.98
2023-03-26T10:23:39.385Z,99537.45
2023-03-26T10:26:10.104Z,99542.06
2023-03-26T10:29:12.759Z,99537.45
2023-03-26T10:31:47.504Z,99538.10
2023-03-26T10:34:55.303Z,99540.09
2023-03-26T10:37:47.675Z,99536.38
2023-03-26T10:40:36.226Z,99532.59
2023-03-26T10:43:32.132Z,99535.11
2023-03-26T10:46:37.209Z,99546.33
2023-03-26T10:49:44.207Z,99545.45
2023-03-26T10:52:18.634Z,99543.70
2023-03-26T10:54:48.951Z,99537.33
2023-03-26T10:57:22.448Z,99533.54
2023-03-26T10:59:54.132Z,99530.64
2023-03-26T11:02:38.275Z,99533.52
2023-03-26T11:05:14.705Z,99525.46
2023-03-26T11:07:42.412Z,99520.81
2023-03-26T11:10:24.413Z,99524.42
2023-03-26T11:13:16.744Z,99521.23
2023-03-26T11:16:02.728Z,99524.50
2023-03-26T11:18:47.249Z,99521.38
2023-03-26T11:21:21.286Z,99522.59
2023-03-26T11:24:05.324Z,99528.52
2023-03-26T11:26:43.675Z,99530.64
2023-03-26T11:29:36.642Z,99528.25
2023-03-26T11:32:10.744Z,99527.35
2023-03-26T11:35:02.461Z,99523.74
2023-03-26T11:37:39.151Z,99529.17
2023-03-26T11:40:36.983Z,99527.40
2023-03-26T11:43:08.932Z,99530.06
2023-03-26T11:45:42.252Z,99529.92
2023-03-26T11:48:23.907Z,99527.42
2023-03-26T11:51:06.083Z,99535.62
2023-03-26T11:53:38.549Z,99544.06
2023-03-26T11:56:06.743Z,99548.02
2023-03-26T11:58:42.963Z,99551.23
2023-03-26T12:01:16.325Z,99550.73
2023-03-26T12:03:56.331Z,99552.11
2023-03-26T12:06:27.718Z,99549.61
2023-03-26T12:08:57.117Z,99553.07
2023-03-26T12:11:28.469Z,99551.73
2023-03-26T12:14:02.351Z,99545.98
2023-03-26T12:16:30.562Z,99542.59
2023-03-26T12:19:18.551Z,99540.98
2023-03-26T12:21:51.723Z,99542.75
2023-03-26T12:24:31.850Z,99546.56
2023-03-26T12:27:22.007Z,99542.35
2023-03-26T12:30:00.225Z,99540.83
2023-03-26T12:32:46.478Z,99542.73
2023-03-26T12:35:22.708Z,99541.43
2023-03-26T12:37:51.655Z,99534.41
2023-03-26T12:40:25.344Z,99534.17
2023-03-26T12:44:52.875Z,99531.52
2023-03-26T12:45:44.541Z,99533.95
2023-03-26T12:48:15.823Z,99531.14
2023-03-26T12:51:00.335Z,99523.77
2023-03-26T12:53:42.385Z,99521.58
2023-03-26T12:56:21.601Z,99522.56
2023-03-26T12:59:09.589Z,99520.69
2023-03-26T13:01:52.816Z,99520.37
2023-03-26T13:04:45.129Z,99513.30
2023-03-26T13:07:42.113Z,99513.23
2023-03-26T13:10:41.515Z,99504.92
2023-03-26T13:13:42.475Z,99514.77
2023-03-26T13:16:22.841Z,99514.94
2023-03-26T13:18:55.992Z,99513.97
2023-03-26T13:21:49.432Z,99518.00
2023-03-26T13:24:41.567Z,99516.98
2023-03-26T13:27:09.288Z,99520.84
2023-03-26T13:30:14.612Z,99512.80
2023-03-26T13:32:59.893Z,99512.05
2023-03-26T13:35:44.140Z,99513.38
2023-03-26T13:38:21.024Z,99521.54
2023-03-26T13:41:09.680Z,99521.63
2023-03-26T13:44:02.116Z,99511.50
2023-03-26T13:46:45.299Z,99520.02
2023-03-26T13:49:29.444Z,99516.73
2023-03-26T13:52:02.889Z,99519.44
2023-03-26T13:54:37.131Z,99516.23
2023-03-26T13:57:33.308Z,99514.93
2023-03-26T14:00:13.761Z,99510.34
2023-03-26T14:02:42.032Z,99510.41
2023-03-26T14:05:35.638Z,99516.79
2023-03-26T14:08:24.622Z,99511.13
2023-03-26T14:10:58.708Z,99508.56
2023-03-26T14:13:33.484Z,99504.95
2023-03-26T14:16:13.406Z,99499.02
2023-03-26T14:18:52.604Z,99491.92
2023-03-26T14:21:55.870Z,99492.06
2023-03-26T14:24:45.646Z,99484.23
2023-03-26T14:27:50.844Z,99478.70
2023-03-26T14:30:35.881Z,99480.16
2023-03-26T14:33:28.123Z,99480.02
2023-03-26T14:36:09.290Z,99488.57
2023-03-26T14:38:47.203Z,99488.58
2023-03-26T14:41:48.973Z,99492.73
2023-03-26T14:44:47.685Z,99487.02
2023-03-26T14:47:20.803Z,99489.59
2023-03-26T14:50:08.336Z,99497.65
2023-03-26T14:52:39.588Z,99505.11
2023-03-26T14:55:18.634Z,99509.19
2023-03-26T14:57:59.170Z,99508.80
2023-03-26T15:01:03.886Z,99508.30
2023-03-26T15:04:13.024Z,99511.71
2023-03-26T15:07:02.832Z,99515.58
2023-03-26T15:09:56.839Z,99518.18
2023-03-26T15:13:11.376Z,99518.39
2023-03-26T15:16:22.314Z,99518.06
2023-03-26T15:18:56.682Z,99514.44
2023-03-26T15:21:27.209Z,99513.58
2023-03-26T15:24:03.853Z,99510.43
2023-03-26T15:26:52.610Z,99508.84
2023-03-26T15:29:39.195Z,99506.73
2023-03-26T15:32:44.484Z,99505.30
2023-03-26T15:35:49.617Z,99499.43
2023-03-26T15:38:29.454Z,99505.02
2023-03-26T15:41:21.371Z,99506.02
2023-03-26T15:44:22.570Z,99510.65
2023-03-26T15:47:02.975Z,99509.23
2023-03-26T15:49:50.664Z,99511.11
2023-03-26T15:52:33.324Z,99518.05
2023-03-26T15:55:27.945Z,99521.23
2023-03-26T15:58:01.513Z,99522.19
2023-03-26T16:00:35.041Z,99521.13
2023-03-26T16:03:31.023Z,99518.79
2023-03-26T16:06:02.242Z,99521.19
2023-03-26T16:08:47.102Z,99522.66
2023-03-26T16:11:52.165Z,99523.42
2023-03-26T16:14:36.116Z,99524.52
2023-03-26T16:17:10.108Z,99533.13
2023-03-26T16:19:41.136Z,99535.45
2023-03-26T16:22:15.384Z,99530.37
2023-03-26T16:24:47.613Z,99530.35
2023-03-26T16:27:15.753Z,99519.52
2023-03-26T16:30:13.723Z,99533.25
2023-03-26T16:32:45.897Z,99536.67
2023-03-26T16:35:33.293Z,99540.59
2023-03-26T16:38:14.527Z,99543.13
2023-03-26T16:41:15.492Z,99544.98
2023-03-26T16:44:02.298Z,99544.71
2023-03-26T16:46:41.754Z,99545.91
2023-03-26T16:49:22.355Z,99553.55
2023-03-26T16:52:14.623Z,99549.54
2023-03-26T16:55:03.903Z,99545.06
2023-03-26T16:58:17.225Z,99548.23
2023-03-26T17:00:49.422Z,99549.42
2023-03-26T17:03:45.057Z,99556.95
2023-03-26T17:06:31.274Z,99560.92
2023-03-26T17:09:06.150Z,99561.71
2023-03-26T17:11:45.932Z,99559.11
2023-03-26T17:14:31.737Z,99563.06
2023-03-26T17:17:02.620Z,99566.66
2023-03-26T17:19:41.912Z,99568.52
2023-03-26T17:22:36.479Z,99569.20
2023-03-26T17:25:37.754Z,99572.16
2023-03-26T17:28:48.252Z,99577.39
2023-03-26T17:31:37.733Z,99581.58
2023-03-26T17:34:47.040Z,99578.38
2023-03-26T17:37:24.031Z,99580.38
2023-03-26T17:39:57.837Z,99582.66
2023-03-26T17:42:33.286Z,99586.20
2023-03-26T17:45:20.678Z,99586.96
2023-03-26T17:47:58.777Z,99588.88
2023-03-26T17:50:31.911Z,99589.75
2023-03-26T17:53:06.165Z,99592.73
2023-03-26T17:55:38.826Z,99592.70
2023-03-26T17:58:22.742Z,99586.08
2023-03-26T18:00:58.033Z,99592.80
2023-03-26T18:03:34.298Z,99588.86
2023-03-26T18:06:31.817Z,99591.69
2023-03-26T18:09:11.392Z,99591.31
2023-03-26T18:11:51.173Z,99592.56
2023-03-26T18:14:45.341Z,99588.25
2023-03-26T18:17:13.721Z,99590.75
2023-03-26T18:20:03.158Z,99581.15
2023-03-26T18:22:31.403Z,99592.52
2023-03-26T18:25:02.274Z,99596.30
2023-03-26T18:27:40.421Z,99587.64
2023-03-26T18:30:18.639Z,99588.31
2023-03-26T18:33:00.067Z,99589.55
2023-03-26T18:35:42.340Z,99585.02
2023-03-26T18:38:35.561Z,99583.03
2023-03-26T18:41:11.173Z,99579.23
2023-03-26T18:43:44.024Z,99582.11
2023-03-26T18:46:14.600Z,99589.84
2023-03-26T18:48:43.995Z,99596.94
2023-03-26T18:51:12.596Z,99603.09
2023-03-26T18:53:54.879Z,99609.23
2023-03-26T18:56:36.223Z,99605.02
2023-03-26T18:59:06.891Z,99607.66
2023-03-26T19:01:37.615Z,99615.41
2023-03-26T19:04:08.324Z,99618.39
2023-03-26T19:06:41.012Z,99607.34
2023-03-26T19:09:28.096Z,99620.26
2023-03-26T19:12:18.914Z,99618.80
2023-03-26T19:14:54.526Z,99625.48
2023-03-26T19:17:26.572Z,99622.33
2023-03-26T19:19:57.411Z,99620.23
2023-03-26T19:22:26.617Z,99618.98
2023-03-26T19:25:00.338Z,99620.88
2023-03-26T19:27:28.993Z,99625.89
2023-03-26T19:29:57.856Z,99632.02
2023-03-26T19:32:34.642Z,99632.50
2023-03-26T19:35:04.807Z,99629.89
2023-03-26T19:37:33.315Z,99635.59
2023-03-26T19:40:19.745Z,99630.91
2023-03-26T19:42:49.467Z,99631.17
2023-03-26T19:45:23.239Z,99634.35
2023-03-26T19:48:00.492Z,99634.09
2023-03-26T19:50:42.174Z,99641.45
2023-03-26T19:53:28.639Z,99639.04
2023-03-26T19:56:11.034Z,99646.61
2023-03-26T19:58:43.000Z,99646.61
2023-03-26T20:04:05.163Z,99643.48
2023-03-26T20:06:42.245Z,99640.70
2023-03-26T20:09:13.190Z,99637.88
2023-03-26T20:11:41.680Z,99638.95
2023-03-26T20:14:25.853Z,99642.79
2023-03-26T20:16:54.014Z,99641.10
2023-03-26T20:19:25.010Z,99644.77
2023-03-26T20:21:53.096Z,99645.74
2023-03-26T20:24:21.676Z,99640.04
2023-03-26T20:26:49.334Z,99647.98
2023-03-26T20:29:17.807Z,99650.06
2023-03-26T20:31:46.247Z,99646.69
2023-03-26T20:34:17.819Z,99648.75
2023-03-26T20:36:46.976Z,99643.65
2023-03-26T20:39:14.799Z,99647.08
2023-03-26T20:41:48.410Z,99643.48
2023-03-26T20:44:19.347Z,99639.91
2023-03-26T20:46:49.055Z,99640.04
2023-03-26T20:49:18.380Z,99639.56
2023-03-26T20:51:46.658Z,99638.53
2023-03-26T20:54:21.373Z,99642.30
2023-03-26T20:56:49.666Z,99644.52
2023-03-26T20:59:21.913Z,99644.02
2023-03-26T21:01:51.078Z,99647.94
2023-03-26T21:04:19.484Z,99654.27
2023-03-26T21:06:48.174Z,99645.11
2023-03-26T21:09:23.690Z,99651.05
2023-03-26T21:12:42.354Z,99656.90
2023-03-26T21:15:20.836Z,99650.16
2023-03-26T21:17:52.493Z,99655.09
2023-03-26T21:20:22.623Z,99660.65
2023-03-26T21:23:06.620Z,99661.05
2023-03-26T21:25:41.973Z,99663.27
2023-03-26T21:28:42.009Z,99654.80
2023-03-26T21:31:18.843Z,99664.43
2023-03-26T21:33:48.262Z,99663.04
2023-03-26T21:36:19.724Z,99654.52
2023-03-26T21:38:50.594Z,99660.51
2023-03-26T21:41:24.341Z,99663.30
2023-03-26T21:43:52.223Z,99664.89
2023-03-26T21:46:20.938Z,99668.57
2023-03-26T21:48:49.277Z,99671.89
2023-03-26T21:51:17.925Z,99667.52
2023-03-26T21:53:46.558Z,99671.52
2023-03-26T21:56:36.159Z,99675.14
2023-03-26T21:59:51.987Z,99670.28
2023-03-26T22:02:25.621Z,99670.21
2023-03-26T22:05:01.582Z,99671.24
2023-03-26T22:07:45.838Z,99673.17
2023-03-26T22:10:13.647Z,99675.36
2023-03-26T22:12:41.528Z,99667.74
2023-03-26T22:15:13.760Z,99673.67
2023-03-26T22:17:42.347Z,99674.76
2023-03-26T22:20:14.433Z,99672.82
2023-03-26T22:22:48.971Z,99673.22
2023-03-26T22:25:18.270Z,99673.19
2023-03-26T22:27:51.122Z,99674.68
2023-03-26T22:30:20.791Z,99675.86
2023-03-26T22:32:49.070Z,99676.48
2023-03-26T22:35:17.061Z,99680.39
2023-03-26T22:37:45.638Z,99683.48
2023-03-26T22:40:13.659Z,99680.32
2023-03-26T22:42:41.841Z,99683.41
2023-03-26T22:45:10.761Z,99679.55
2023-03-26T22:47:40.156Z,99678.05
2023-03-26T22:50:09.399Z,99672.58
2023-03-26T22:52:37.647Z,99679.14
2023-03-26T22:55:06.018Z,99672.34
2023-03-26T22:57:34.047Z,99677.76
2023-03-26T23:00:09.051Z,99677.08
2023-03-26T23:02:37.429Z,99675.99
2023-03-26T23:05:05.545Z,99675.14
2023-03-26T23:07:34.030Z,99671.91
2023-03-26T23:10:02.161Z,99673.46
2023-03-26T23:12:29.860Z,99674.24
2023-03-26T23:14:58.343Z,99676.66
2023-03-26T23:17:26.167Z,99673.19
2023-03-26T23:19:54.296Z,99677.14
2023-03-26T23:22:22.352Z,99673.34
2023-03-26T23:24:51.448Z,99673.43
2023-03-26T23:27:22.487Z,99667.45
2023-03-26T23:29:50.673Z,99664.91
2023-03-26T23:32:23.487Z,99661.17
2023-03-26T23:34:52.994Z,99661.20
2023-03-26T23:37:23.554Z,99660.88
2023-03-26T23:39:52.221Z,99664.58
2023-03-26T23:42:28.615Z,99662.84
2023-03-26T23:44:57.695Z,99665.54
2023-03-26T23:47:25.781Z,99663.93
2023-03-26T23:49:53.877Z,99653.34
2023-03-26T23:52:21.938Z,99663.05
2023-03-26T23:54:49.905Z,99667.96
2023-03-26T23:57:18.626Z,99666.64
2023-03-26T23:59:46.561Z,99664.58
